createdAt,value
2023-04-08T00:01:27.357Z,19.38
2023-04-08T00:04:47.755Z,21.40
2023-04-08T00:08:08.166Z,18.00
2023-04-08T00:11:30.552Z,14.95
2023-04-08T00:14:50.904Z,16.45
2023-04-08T00:18:11.226Z,16.40
2023-04-08T00:21:31.518Z,17.20
2023-04-08T00:24:51.831Z,18.77
2023-04-08T00:28:13.621Z,16.27
2023-04-08T00:31:34.611Z,15.55
2023-04-08T00:34:54.971Z,19.25
2023-04-08T00:38:15.197Z,18.85
2023-04-08T00:41:35.711Z,18.48
2023-04-08T00:44:57.474Z,16.90
2023-04-08T00:48:17.814Z,17.10
2023-04-08T00:51:38.496Z,19.67
2023-04-08T00:54:58.860Z,20.08
2023-04-08T00:58:19.584Z,19.80
2023-04-08T01:01:51.053Z,21.23
2023-04-08T01:05:23.616Z,24.23
2023-04-08T01:08:45.164Z,23.08
2023-04-08T01:12:08.049Z,23.45
2023-04-08T01:15:29.312Z,19.23
2023-04-08T01:18:52.456Z,22.55
2023-04-08T01:22:17.039Z,21.23
2023-04-08T01:25:38.596Z,22.52
2023-04-08T01:29:02.987Z,20.95
2023-04-08T01:32:24.919Z,22.50
2023-04-08T01:35:47.338Z,21.58
2023-04-08T01:39:08.867Z,21.30
2023-04-08T01:42:29.980Z,22.58
2023-04-08T01:45:54.745Z,25.10
2023-04-08T01:49:15.382Z,21.95
2023-04-08T01:52:36.321Z,23.10
2023-04-08T01:55:59.130Z,22.50
2023-04-08T01:59:22.390Z,18.85
2023-04-08T02:02:44.998Z,18.58
2023-04-08T02:06:06.818Z,22.98
2023-04-08T02:09:28.209Z,17.42
2023-04-08T02:12:48.617Z,21.55
2023-04-08T02:16:11.910Z,19.52
2023-04-08T02:19:37.633Z,18.00
2023-04-08T02:23:02.429Z,22.15
2023-04-08T02:26:23.649Z,19.98
2023-04-08T02:29:44.312Z,19.33
2023-04-08T02:33:05.335Z,18.55
2023-04-08T02:36:27.758Z,18.63
2023-04-08T02:39:48.109Z,19.10
2023-04-08T02:43:08.331Z,20.30
2023-04-08T02:46:31.588Z,18.60
2023-04-08T02:49:53.562Z,19.52
2023-04-08T02:53:16.378Z,21.42
2023-04-08T02:56:36.581Z,24.60
2023-04-08T02:59:57.074Z,21.27
2023-04-08T03:03:17.445Z,23.00
2023-04-08T03:06:37.842Z,21.92
2023-04-08T03:10:00.126Z,25.35
2023-04-08T03:13:20.400Z,26.33
2023-04-08T03:16:40.826Z,24.02
2023-04-08T03:20:01.221Z,26.52
2023-04-08T03:23:21.928Z,24.90
2023-04-08T03:26:43.503Z,30.13
2023-04-08T03:30:03.871Z,29.83
2023-04-08T03:33:24.447Z,31.65
2023-04-08T03:36:44.683Z,28.13
2023-04-08T03:40:05.208Z,34.08
2023-04-08T03:43:27.615Z,31.25
2023-04-08T03:46:49.260Z,30.30
2023-04-08T03:50:10.109Z,29.67
2023-04-08T03:53:30.798Z,27.38
2023-04-08T03:56:51.219Z,31.65
2023-04-08T04:00:13.444Z,29.40
2023-04-08T04:03:33.894Z,28.50
2023-04-08T04:06:54.657Z,27.00
2023-04-08T04:10:14.893Z,32.83
2023-04-08T04:13:35.266Z,27.80
2023-04-08T04:16:57.009Z,33.17
2023-04-08T04:20:17.830Z,31.00
2023-04-08T04:23:38.160Z,30.25
2023-04-08T04:27:01.797Z,33.65
2023-04-08T04:30:25.931Z,33.35
2023-04-08T04:33:47.597Z,29.23
2023-04-08T04:37:07.921Z,29.98
2023-04-08T04:40:28.173Z,35.17
2023-04-08T04:43:48.681Z,37.45
2023-04-08T04:47:08.862Z,35.55
2023-04-08T04:50:30.494Z,37.70
2023-04-08T04:53:50.993Z,37.78
2023-04-08T04:57:12.370Z,35.10
2023-04-08T05:00:32.659Z,35.85
2023-04-08T05:03:52.893Z,31.80
2023-04-08T05:07:15.011Z,36.72
2023-04-08T05:10:35.194Z,35.10
2023-04-08T05:13:55.506Z,34.72
2023-04-08T05:17:15.785Z,34.80
2023-04-08T05:20:36.086Z,39.60
2023-04-08T05:23:57.748Z,38.60
2023-04-08T05:27:18.074Z,38.45
2023-04-08T05:30:38.278Z,36.67
2023-04-08T05:33:58.475Z,33.03
2023-04-08T05:37:18.740Z,39.13
2023-04-08T05:40:40.621Z,33.38
2023-04-08T05:44:00.866Z,33.00
2023-04-08T05:47:21.261Z,33.67
2023-04-08T05:50:41.483Z,27.50
2023-04-08T05:54:01.749Z,27.50
2023-04-08T05:57:23.417Z,30.25
2023-04-08T06:00:43.639Z,30.55
2023-04-08T06:04:04.094Z,27.95
2023-04-08T06:07:24.525Z,29.35
2023-04-08T06:10:49.475Z,28.95
2023-04-08T06:14:11.272Z,32.15
2023-04-08T06:17:31.666Z,28.33
2023-04-08T06:20:51.845Z,28.65
2023-04-08T06:24:12.168Z,29.25
2023-04-08T06:27:32.381Z,36.78
2023-04-08T06:30:53.918Z,32.03
2023-04-08T06:34:14.580Z,34.58
2023-04-08T06:37:38.370Z,32.45
2023-04-08T06:41:03.018Z,31.55
2023-04-08T06:44:23.285Z,28.67
2023-04-08T06:47:44.934Z,33.40
2023-04-08T06:51:05.816Z,28.77
2023-04-08T06:54:26.134Z,27.98
2023-04-08T06:57:46.667Z,32.72
2023-04-08T07:01:07.712Z,26.80
2023-04-08T07:04:29.317Z,27.75
2023-04-08T07:07:49.692Z,28.25
2023-04-08T07:11:09.893Z,26.02
2023-04-08T07:14:30.391Z,27.95
2023-04-08T07:17:51.644Z,29.75
2023-04-08T07:21:13.297Z,25.92
2023-04-08T07:24:34.259Z,30.75
2023-04-08T07:27:54.478Z,29.35
2023-04-08T07:31:16.020Z,33.63
2023-04-08T07:34:36.677Z,29.45
2023-04-08T07:37:58.246Z,31.42
2023-04-08T07:41:18.442Z,29.88
2023-04-08T07:44:39.125Z,34.78
2023-04-08T07:47:59.368Z,32.42
2023-04-08T07:51:20.463Z,32.17
2023-04-08T07:54:42.774Z,35.17
2023-04-08T07:58:03.163Z,32.05
2023-04-08T08:01:23.780Z,32.72
2023-04-08T08:04:44.612Z,32.30
2023-04-08T08:08:07.414Z,31.83
2023-04-08T08:11:29.372Z,34.65
2023-04-08T08:14:50.014Z,32.90
2023-04-08T08:18:10.271Z,29.75
2023-04-08T08:21:31.077Z,32.83
2023-04-08T08:24:56.319Z,32.65
2023-04-08T08:28:18.071Z,34.47
2023-04-08T08:31:38.318Z,33.10
2023-04-08T08:34:58.571Z,35.95
2023-04-08T08:38:18.868Z,34.42
2023-04-08T08:41:39.526Z,31.35
2023-04-08T08:45:02.612Z,33.13
2023-04-08T08:48:22.919Z,28.63
2023-04-08T08:51:43.308Z,28.75
2023-04-08T08:55:16.794Z,31.33
2023-04-08T08:58:43.832Z,31.35
2023-04-08T09:02:29.271Z,24.52
2023-04-08T09:05:51.787Z,24.50
2023-04-08T09:09:22.787Z,27.23
2023-04-08T09:12:54.213Z,24.75
2023-04-08T09:16:16.654Z,27.83
2023-04-08T09:19:38.652Z,27.88
2023-04-08T09:22:59.840Z,23.80
2023-04-08T09:26:22.011Z,25.27
2023-04-08T09:29:51.667Z,23.08
2023-04-08T09:33:12.031Z,23.75
2023-04-08T09:36:37.762Z,19.95
2023-04-08T09:39:58.151Z,21.45
2023-04-08T09:43:19.275Z,22.20
2023-04-08T09:46:41.378Z,19.73
2023-04-08T09:50:05.843Z,17.60
2023-04-08T09:53:36.470Z,19.33
2023-04-08T09:57:03.580Z,17.60
2023-04-08T10:00:26.185Z,20.02
2023-04-08T10:03:50.004Z,19.55
2023-04-08T10:07:10.717Z,16.50
2023-04-08T10:10:32.420Z,22.58
2023-04-08T10:13:53.362Z,20.95
2023-04-08T10:17:27.449Z,20.80
2023-04-08T10:20:48.978Z,19.55
2023-04-08T10:24:11.062Z,18.55
2023-04-08T10:27:39.699Z,21.40
2023-04-08T10:31:23.058Z,16.48
2023-04-08T10:34:52.402Z,19.45
2023-04-08T10:38:13.814Z,17.00
2023-04-08T10:41:34.709Z,15.80
2023-04-08T10:45:01.963Z,16.50
2023-04-08T10:48:24.499Z,15.05
2023-04-08T10:51:50.073Z,17.88
2023-04-08T10:55:12.042Z,20.98
2023-04-08T10:58:32.404Z,21.60
2023-04-08T11:01:58.586Z,18.55
2023-04-08T11:05:19.411Z,19.38
2023-04-08T11:08:39.695Z,16.60
2023-04-08T11:12:03.375Z,23.20
2023-04-08T11:15:25.440Z,18.08
2023-04-08T11:18:48.465Z,21.40
2023-04-08T11:22:10.227Z,22.10
2023-04-08T11:25:30.887Z,20.63
2023-04-08T11:28:52.244Z,15.57
2023-04-08T11:32:12.881Z,15.10
2023-04-08T11:35:34.927Z,16.40
2023-04-08T11:38:58.262Z,15.10
2023-04-08T11:42:36.208Z,18.45
2023-04-08T11:46:09.578Z,17.73
2023-04-08T11:49:29.757Z,16.67
2023-04-08T11:52:52.920Z,17.97
2023-04-08T11:56:17.692Z,18.25
2023-04-08T11:59:37.960Z,16.13
2023-04-08T12:02:58.417Z,16.08
2023-04-08T12:06:18.881Z,17.48
2023-04-08T12:09:40.649Z,20.23
2023-04-08T12:13:01.032Z,19.35
2023-04-08T12:16:21.672Z,15.07
2023-04-08T12:19:41.900Z,17.63
2023-04-08T12:23:02.044Z,18.73
2023-04-08T12:26:24.244Z,20.30
2023-04-08T12:29:44.509Z,16.13
2023-04-08T12:33:04.959Z,17.13
2023-04-08T12:36:27.492Z,17.13
2023-04-08T12:39:47.852Z,13.15
2023-04-08T12:43:09.585Z,16.48
2023-04-08T12:46:29.987Z,16.83
2023-04-08T12:49:50.652Z,18.48
2023-04-08T12:53:11.009Z,18.02
2023-04-08T12:56:31.642Z,20.95
2023-04-08T12:59:53.651Z,15.43
2023-04-08T13:03:16.369Z,14.90
2023-04-08T13:06:37.363Z,19.10
2023-04-08T13:09:57.594Z,18.63
2023-04-08T13:13:18.747Z,21.17
2023-04-08T13:16:40.491Z,22.67
2023-04-08T13:20:00.859Z,17.05
2023-04-08T13:23:21.543Z,15.43
2023-04-08T13:26:41.796Z,25.25
2023-04-08T13:30:02.017Z,16.55
2023-04-08T13:33:23.735Z,19.35
2023-04-08T13:36:44.024Z,19.77
2023-04-08T13:40:05.134Z,20.67
2023-04-08T13:43:25.532Z,16.77
2023-04-08T13:46:46.139Z,18.95
2023-04-08T13:50:08.268Z,21.17
2023-04-08T13:53:28.556Z,22.85
2023-04-08T13:56:48.816Z,21.00
2023-04-08T14:00:10.228Z,21.92
2023-04-08T14:03:31.810Z,21.00
2023-04-08T14:06:53.489Z,20.02
2023-04-08T14:10:15.630Z,18.50
2023-04-08T14:13:36.156Z,19.08
2023-04-08T14:16:56.490Z,18.17
2023-04-08T14:20:16.724Z,17.25
2023-04-08T14:23:38.277Z,15.60
2023-04-08T14:26:59.027Z,15.40
2023-04-08T14:30:19.807Z,15.57
2023-04-08T14:33:40.697Z,16.05
2023-04-08T14:37:01.215Z,17.98
2023-04-08T14:40:22.834Z,17.27
2023-04-08T14:43:43.016Z,17.58
2023-04-08T14:47:03.812Z,17.77
2023-04-08T14:50:24.031Z,23.50
2023-04-08T14:53:44.547Z,24.40
2023-04-08T14:57:06.508Z,29.15
2023-04-08T15:00:26.795Z,26.83
2023-04-08T15:03:48.019Z,23.42
2023-04-08T15:07:08.554Z,21.63
2023-04-08T15:10:28.925Z,18.67
2023-04-08T15:13:50.573Z,24.30
2023-04-08T15:17:11.187Z,23.70
2023-04-08T15:20:31.529Z,20.38
2023-04-08T15:23:52.086Z,26.13
2023-04-08T15:27:12.341Z,24.70
2023-04-08T15:30:36.012Z,22.98
2023-04-08T15:33:56.832Z,21.13
2023-04-08T15:37:17.767Z,34.83
2023-04-08T15:40:38.273Z,20.92
2023-04-08T15:43:58.507Z,22.15
2023-04-08T15:47:20.088Z,20.02
2023-04-08T15:50:41.743Z,20.38
2023-04-08T15:54:02.289Z,22.42
2023-04-08T15:57:26.559Z,18.90
2023-04-08T16:00:46.846Z,20.17
2023-04-08T16:04:08.551Z,25.27
2023-04-08T16:07:28.827Z,24.42
2023-04-08T16:10:49.040Z,23.20
2023-04-08T16:14:09.284Z,22.27
2023-04-08T16:17:29.530Z,22.67
2023-04-08T16:20:51.361Z,20.48
2023-04-08T16:24:12.217Z,21.10
2023-04-08T16:27:33.264Z,20.48
2023-04-08T16:30:53.471Z,18.73
2023-04-08T16:34:14.156Z,18.63
2023-04-08T16:37:36.769Z,18.15
2023-04-08T16:40:58.445Z,87.30
2023-04-08T16:44:18.684Z,77.43
2023-04-08T16:47:41.606Z,35.67
2023-04-08T16:51:04.799Z,22.15
2023-04-08T16:54:26.570Z,18.38
2023-04-08T16:57:47.572Z,30.35
2023-04-08T17:01:08.100Z,63.35
2023-04-08T17:04:28.395Z,48.28
2023-04-08T17:07:48.791Z,23.10
2023-04-08T17:11:10.953Z,19.30
2023-04-08T17:14:31.930Z,20.33
2023-04-08T17:17:52.389Z,20.45
2023-04-08T17:21:13.866Z,22.05
2023-04-08T17:24:34.117Z,22.95
2023-04-08T17:27:55.600Z,24.52
2023-04-08T17:31:16.243Z,20.65
2023-04-08T17:34:37.610Z,34.55
2023-04-08T17:37:57.941Z,41.75
2023-04-08T17:41:29.818Z,40.90
2023-04-08T17:45:01.598Z,49.97
2023-04-08T17:48:21.863Z,51.92
2023-04-08T17:51:42.205Z,47.53
2023-04-08T17:55:02.733Z,45.78
2023-04-08T17:58:23.281Z,43.45
2023-04-08T18:01:44.966Z,38.35
2023-04-08T18:05:06.504Z,38.95
2023-04-08T18:08:26.898Z,47.28
2023-04-08T18:11:47.125Z,64.65
2023-04-08T18:15:07.728Z,70.72
2023-04-08T18:18:29.447Z,48.45
2023-04-08T18:21:49.742Z,33.13
2023-04-08T18:25:10.772Z,29.30
2023-04-08T18:28:31.395Z,29.40
2023-04-08T18:31:51.787Z,26.20
2023-04-08T18:35:13.404Z,26.67
2023-04-08T18:38:36.021Z,45.13
2023-04-08T18:41:56.785Z,54.45
2023-04-08T18:45:17.065Z,44.17
2023-04-08T18:48:37.252Z,39.47
2023-04-08T18:52:03.030Z,33.47
2023-04-08T18:55:23.805Z,30.42
2023-04-08T18:58:46.747Z,31.10
2023-04-08T19:02:07.854Z,34.97
2023-04-08T19:05:28.121Z,35.58
2023-04-08T19:08:49.661Z,41.72
2023-04-08T19:12:09.921Z,43.33
2023-04-08T19:15:30.230Z,39.20
2023-04-08T19:18:50.796Z,43.03
2023-04-08T19:22:11.670Z,38.80
2023-04-08T19:25:33.409Z,43.38
2023-04-08T19:28:53.609Z,43.15
2023-04-08T19:32:14.359Z,43.25
2023-04-08T19:35:34.712Z,52.67
2023-04-08T19:38:55.470Z,51.03
2023-04-08T19:42:18.391Z,51.25
2023-04-08T19:45:38.784Z,53.75
2023-04-08T19:48:59.178Z,56.03
2023-04-08T19:52:20.509Z,57.40
2023-04-08T19:55:43.002Z,59.45
2023-04-08T19:59:04.702Z,57.47
2023-04-08T20:02:25.755Z,56.60
2023-04-08T20:05:46.611Z,55.83
2023-04-08T20:09:06.910Z,60.80
2023-04-08T20:12:27.829Z,56.85
2023-04-08T20:15:49.891Z,56.28
2023-04-08T20:19:10.384Z,50.08
2023-04-08T20:22:31.022Z,52.33
2023-04-08T20:25:52.451Z,55.67
2023-04-08T20:29:13.143Z,55.55
2023-04-08T20:32:34.788Z,52.35
2023-04-08T20:35:57.164Z,58.00
2023-04-08T20:39:17.654Z,64.65
2023-04-08T20:42:38.630Z,76.28
2023-04-08T20:45:59.528Z,82.22
2023-04-08T20:49:21.378Z,78.07
2023-04-08T20:52:41.624Z,76.40
2023-04-08T20:56:02.612Z,71.55
2023-04-08T20:59:23.126Z,59.42
2023-04-08T21:02:43.864Z,58.70
2023-04-08T21:06:05.992Z,58.97
2023-04-08T21:09:26.637Z,63.15
2023-04-08T21:12:46.926Z,63.40
2023-04-08T21:16:07.469Z,54.22
2023-04-08T21:19:27.746Z,58.83
2023-04-08T21:22:49.416Z,69.47
2023-04-08T21:26:13.589Z,69.45
2023-04-08T21:29:34.117Z,64.60
2023-04-08T21:32:54.807Z,69.25
2023-04-08T21:36:15.780Z,70.32
2023-04-08T21:39:37.893Z,62.50
2023-04-08T21:42:58.225Z,64.97
2023-04-08T21:46:18.913Z,69.03
2023-04-08T21:49:39.284Z,68.03
2023-04-08T21:52:59.506Z,71.38
2023-04-08T21:56:22.170Z,70.90
2023-04-08T21:59:42.382Z,74.53
2023-04-08T22:03:02.883Z,64.45
2023-04-08T22:06:32.340Z,71.55
2023-04-08T22:09:54.452Z,70.20
2023-04-08T22:13:18.689Z,66.45
2023-04-08T22:16:39.651Z,67.32
2023-04-08T22:19:59.930Z,70.25
2023-04-08T22:23:20.226Z,76.15
2023-04-08T22:26:42.128Z,70.43
2023-04-08T22:30:03.885Z,75.40
2023-04-08T22:33:25.620Z,76.13
2023-04-08T22:36:46.603Z,74.90
2023-04-08T22:40:07.585Z,82.10
2023-04-08T22:43:27.809Z,76.32
2023-04-08T22:46:49.415Z,78.13
2023-04-08T22:50:10.229Z,76.25
2023-04-08T22:53:30.552Z,83.53
2023-04-08T22:56:51.435Z,81.40
2023-04-08T23:00:12.804Z,83.38
2023-04-08T23:03:34.452Z,78.28
2023-04-08T23:06:54.690Z,75.30
2023-04-08T23:10:15.012Z,81.95
2023-04-08T23:13:35.293Z,77.22
2023-04-08T23:16:55.537Z,75.38
2023-04-08T23:20:17.281Z,81.07
2023-04-08T23:23:37.527Z,85.05
2023-04-08T23:26:58.578Z,80.82
2023-04-08T23:30:18.876Z,82.32
2023-04-08T23:33:39.371Z,93.13
2023-04-08T23:37:02.250Z,93.50
2023-04-08T23:40:22.907Z,92.60
2023-04-08T23:43:43.760Z,97.43
2023-04-08T23:47:03.993Z,95.10
2023-04-08T23:50:24.245Z,108.20
2023-04-08T23:53:46.023Z,97.75
2023-04-08T23:57:06.619Z,103.55
